This is the latest recevied weather packets stored in our database for station/object DL4JCP-6. If no packets are shown the sender has not sent any weather packets the latest 10 day(s).
| Time | Temp. | Humidity | Pressure | Rain* | Wind** | Luminosity | Snow |
|---|---|---|---|---|---|---|---|
| 1777549446 | 11.67° C | 38% | 1031.3 hPa | 0 mm | - | - | - |
| 1777549146 | 12.22° C | 37% | 1031.3 hPa | 0 mm | - | - | - |
| 1777548845 | 12.22° C | 38% | 1031.4 hPa | 0 mm | - | - | - |
| 1777548795 | 12.22° C | 38% | 1031.4 hPa | 0 mm | - | - | - |
| 1777548545 | 12.22° C | 37% | 1031.4 hPa | 0 mm | - | - | - |
| 1777548247 | 11.67° C | 36% | 1031.4 hPa | 0 mm | - | - | - |
| 1777547945 | 11.67° C | 35% | 1031.4 hPa | 0 mm | - | - | - |
| 1777547896 | 11.67° C | 35% | 1031.4 hPa | 0 mm | - | - | - |
| 1777547645 | 11.67° C | 36% | 1031.5 hPa | 0 mm | - | - | - |
| 1777547345 | 11.67° C | 37% | 1031.6 hPa | 0 mm | - | - | - |
| 1777547045 | 11.11° C | 34% | 1031.6 hPa | 0 mm | - | - | - |
| 1777546995 | 11.11° C | 34% | 1031.6 hPa | 0 mm | - | - | - |
| 1777546745 | 11.11° C | 36% | 1031.6 hPa | 0 mm | - | - | - |
| 1777546444 | 10.56° C | 36% | 1031.7 hPa | 0 mm | - | - | - |
| 1777546144 | 10.56° C | 34% | 1031.8 hPa | 0 mm | - | - | - |
| 1777546095 | 10.56° C | 34% | 1031.8 hPa | 0 mm | - | - | - |
| 1777545844 | 11.11° C | 36% | 1031.7 hPa | 0 mm | - | - | - |
| 1777545544 | 11.11° C | 37% | 1031.8 hPa | 0 mm | - | - | - |
| 1777545244 | 10.56° C | 35% | 1031.9 hPa | 0 mm | - | - | - |
| 1777544944 | 10.56° C | 33% | 1031.9 hPa | 0 mm | - | - | - |
| 1777544644 | 11.11° C | 36% | 1032 hPa | 0 mm | - | - | - |
| 1777544344 | 11.11° C | 37% | 1032 hPa | 0 mm | - | - | - |
| 1777544299 | 11.11° C | 37% | 1032 hPa | 0 mm | - | - | - |
| 1777544046 | 10.56° C | 37% | 1032 hPa | 0 mm | - | - | - |
| 1777543746 | 10.56° C | 36% | 1032 hPa | 0 mm | - | - | - |
* Rain latest hour (hover to see other rain measurements)
** Current wind speed in m/s (hover to see current wind gust speed)